Airfield :
LOGIN :

Register | Disclaimer

   EN    FR    IT 

 










Legend :    VFR   Marginal VFR   IFR   Intensive IFR   Very Intensive IFR
Visi :
Ceiling :
>= 8 km
>= 3000ft
5 to 8 km
1000 to 3000 ft
1500m to 5 km
500 to 1000 ft
800 to 1500m
200 to 500 ft
< 800m
< 200 ft
Symbols :   Thunderstorms  Fog  Heavy snow  Heavy precipitations  Wind > 20 kt
SIGMETs :     Misc.  Thunderstorms  Icing  Turbulence  Mountain Waves  Volcanic Ashes







- Airport Elevation : 2220 ft


LOXZ - Zeltweg AB

CURRENT METAR :
  • 121320Z 08010KT 40KM FEW055SC BKN140AC 08/02 Q1006 NOSIG

EXPIRED METARs :
  • 121250Z 06009KT 40KM FEW050SC BKN140AC 08/03 Q1006 NOSIG
  • 121220Z 08009KT 040V100 40KM FEW050SC BKN140AC 09/03 Q1006 NOSIG
  • 121150Z 27005KT 230V290 40KM FEW040SC BKN140AC 11/02 Q1005 NOSIG
  • 121120Z VRB04KT 40KM FEW040SC BKN140AC 11/03 Q1005 NOSIG
  • 121050Z VRB04KT 30KM FEW040SC BKN140AC 11/03 Q1005 NOSIG

TAF TAF LOXZ
Valid from the 12 at 12:00 until the 12 at 21:00 UTC


121115Z 1212/1221 VRB05KT 9999 SCT050 BKN120
BECMG 1218/1221 5000 -RASN FEW010 SCT040 BKN050
No reported NOTAMs for that airfield.



MET'MAP, your aeronautical weather chart ! - Copyright ORBIFLY December 2007 - Disclaimer

ORBIFLY MET'MAP TEAM :

Programming & Development : Alexandra Zaïnal
Concept & Development : Baudouin d'Aumeries
Co-Development & Prog : Marc-Olivier Méhu
Technical & hardware support : Manuel Goepfert

Contact : metmap@orbifly.com




SOURCES & CREDITS :

   NOAA